Pine Island, NY (10969)

1:02 PM EDT on May 06, 2015 (GMT -0400)
Chester | | Change Station
CLOSE
Current Station
Personal Weather Station
Location: Chester, NY
Elevation: 449 ft
Nearby Weather Stations

Elev 449 ft 41.37 °N, 74.28 °W | Updated 3 minutes ago

Overcast
Overcast
63.9 °F
Feels Like 63.9 °F
N
1.0
Wind Variable Wind from NW
Gusts 1.0 mph

Today
High -- | Low -- °F
--% Chance of Precip.
Yesterday
High -- | Low -- °F
Precip. -- in
5:48 AM 7:59 PM
Waning Gibbous, 93% visible
Pressure 30.29 in
Visibility 10.0 miles
Clouds Scattered Clouds 6000 ft
Overcast 8500 ft
Dew Point 51 °F
Humidity 62%
Rainfall 0.00 in
Snow Depth Not available.
UV 3 out of 12
Pollen 3.80 out of 12
Air Quality Not available.
Flu Activity Widespread
METAR KMGJ 061654Z AUTO 00000KT 10SM SCT060 OVC085 19/05 A3029 RMK AO2 SLP256 T01890050 TSNO

More Conditions Fewer Conditions

Pressure 30.29 in
Visibility 10.0 miles
Clouds Scattered Clouds 6000 ft
Overcast 8500 ft
Dew Point 51 °F
Humidity 62%
Rainfall 0.00 in
Snow Depth Not available.
UV 3 out of 12
Pollen 3.80 out of 12
Air Quality Not available.
Flu Activity Widespread
METAR KMGJ 061654Z AUTO 00000KT 10SM SCT060 OVC085 19/05 A3029 RMK AO2 SLP256 T01890050 TSNO

More Conditions Fewer Conditions

10-Day Weather Forecast

Almanac

Astronomy

May. 06, 2015 Rise Set
Actual Time
Civil Twilight
Nautical Twilight
Astronomical Twilight
Moon
Length of Visible Light
Length of Day
Tomorrow will be .
, % of the Moon is Illuminated

Today's Extremes

State Highs State Lows

Community

WunderPhotos

Upload Photos

1,818,954 photos uploaded!

WunderBlogs® & News

Nearby

Air Quality

  Air Quality AQ Index Pollutant
Not available.

Snow Depth

Station Depth Elevation

Earthquake Activity

City Distance Mag. Time & Date
Minimum magnitude displayed is 2.5.

Coastal Water Temperatures

Place Temperature

Stations

Nearby Weather Stations

Station Location Temp. Windchill Dew Point Humidity Wind Precip. Elev Updated Type